Avondale, Washington
Current Conditions -  °F | °C
As of 12:53 AM on Sunday 23 Nov 2014 (Local Time) from KBFI Reporting Station
Broken Clouds Broken Clouds  
Wind Chill: 50°   Ceiling: 11000
Heat Index: 50°   Visibility: 10mi
Dew Point: 43°   Wind: 12mph
Humidity: 77%   Direction: 170°S
Pressure: 30.14"   Gusts: NA
Location:  47.6833°N, 122.123°W
Report Text: KBFI 230853Z 17010KT 10SM BKN110 10/06 A3014 RMK AO2 SLP206 T01000061 51012
Loading
Personal Weather Stations






























Interactive Weather Map New forecast layout! Learn more

10-Day Weather Forecast

Advertisements
Track Severe Weather on mobile